images/hfc/images/print_logo.png
Drucken
[Quelle: ADDS]
METAR
EDDW 240350Z VRB02KT 9999 SCT011 BKN020 03/02 Q1024 TEMPO BKN011 =
TAF
EDDW 232300Z 2400/2424 20006KT 9999 FEW025 PROB40 TEMPO 2404/2407 BKN006 TEMPO 2407/2412 BKN010 BECMG 2408/2410 21011KT BECMG 2414/2416 17006KT =
BCMT / ECET: 06:25 / 15:58 UTC (EDDW 2020-11-24)

printlogo=no